Tiempo atmosférico en la estación meteorológica de Bielsa, Huesca (990 m.)

Fecha
DESCASC
Temp. máxima en grados centígrados (hora)
DESCASC
Temp. mínima en grados centígrados (hora)
DESCASC
Temp. media en grados centígrados
DESCASC
Racha de viento máxima en m/sg (hora)
DESCASC
Velocidad máxima media en intervalos de 10 minutos(hora)
DESCASC
Precipitaciones diarias en mm
DESCASC
Precipitaciones de 00:00 a 06:00 en mm
DESCASC
Precipitaciones de 06:00 a 12:00 en mm
DESCASC
Precipitaciones de 12:00 a 18:00 en mm
DESCASC
Precipitaciones de 18:00 a 24:00 en mm
DESCASC
23-11-2017 15.5 (13:50) -0.1 (01:20) 7.7 9.17 (12:30) 3.61 (12:30) 0 0 0 0 0
22-11-2017 15.4 (13:10) -0.3 (07:20) 7.5 6.39 (16:00) 2.78 (16:00) 0 0 0 0 0
21-11-2017 15.4 (13:10) -0.3 (08:10) 7.5 5.28 (10:20) 2.5 (16:10) 0 0 0 0 0
20-11-2017 16.5 (13:20) 1.1 (08:10) 8.8 6.94 (00:50) 3.33 (00:50) 0 0 0 0 0
19-11-2017 18 (13:20) -1.2 (-00:0) 8.4 11.67 (15:00) 4.72 (15:10) 0 0 0 0 0
18-11-2017 17.4 (13:10) -0.4 (00:00) 8.5 10.56 (12:10) 4.72 (12:00) 0 0 0 0 0
17-11-2017 18 (13:20) 4.6 (00:00) 11.3 10 (01:10) 4.72 (00:10) 0 0 0 0 0
16-11-2017 15.2 (13:30) -0.1 (00:00) 7.5 9.17 (23:40) 5 (23:50) 0 0 0 0 0
15-11-2017 18.6 (13:20) -1.8 (-00:0) 8.4 9.17 (13:00) 4.44 (13:00) 0 0 0 0 0
14-11-2017 11.7 (18:20) -0.3 (00:00) 5.7 22.22 (10:20) 10.28 (06:20) 0 0 0 0 0
13-11-2017 11.7 (00:00) 3.5 (00:00) 7.6 24.17 (02:10) 9.44 (02:20) 0 0 0 0 0
12-11-2017 17 (12:50) 4.5 (00:00) 10.8 16.39 (13:10) 6.39 (13:30) 0 0 0 0 0
11-11-2017 13.9 (19:10) 8.9 (00:00) 11.4 13.89 (21:50) 6.67 (22:00) 0 0 0 0 0
10-11-2017 13.4 (14:10) 4.9 (00:00) 9.1 18.61 (18:10) 8.33 (18:10) 0 0 0 0 0
09-11-2017 10.1 (13:00) 4.6 (00:00) 7.4 17.22 (13:10) 7.5 (12:30) 0 0 0 0 0
08-11-2017 9.9 (12:50) 0.3 (00:00) 5.1 16.39 (11:40) 5.83 (11:10) 0 0 0 0 0
07-11-2017 14.2 (14:10) -0.3 (00:00) 6.9 19.72 (01:40) 8.33 (00:40) 0 0 0 0 0
06-11-2017 7.6 (12:50) 1.2 (00:00) 4.4 20.56 (20:20) 9.72 (22:40) 0 0 0 0 0
05-11-2017 12.1 (12:40) 3 (00:00) 7.6 13.61 (12:20) 6.67 (12:50) 0.2 0.2 0 0 0
04-11-2017 11 (15:40) 6.1 (00:00) 8.5 6.67 (11:50) 2.78 (11:50) 3.6 2 1.4 0.2 0
03-11-2017 17.5 (14:10) 4.7 (00:00) 11.1 8.61 (11:50) 3.61 (13:10) 0 0 0 0 0
02-11-2017 14.7 (14:40) 3.5 (03:30) 9.1 6.94 (13:40) 2.5 (14:00) 0 0 0 0 0
01-11-2017 15.7 (12:30) 2.4 (00:00) 9 6.39 (14:00) 2.5 (12:10) 0 0 0 0 0
31-10-2017 16.5 (13:20) 1.3 (00:00) 8.9 8.61 (13:30) 3.61 (14:00) 0 0 0 0 0
30-10-2017 21.9 (13:20) 3.7 (00:00) 12.8 10.83 (11:30) 5 (00:30) 0 0 0 0 0
29-10-2017 21 (12:10) 6.1 (00:00) 13.5 11.39 (15:00) 5 (15:10) 0 0 0 0 0
28-10-2017 22.9 (14:30) 5.9 (00:00) 14.4 14.44 (04:00) 6.11 (09:20) 0 0 0 0 0
27-10-2017 25.7 (14:00) 5.9 (00:00) 15.8 15.56 (17:00) 7.22 (17:30) 0 0 0 0 0
26-10-2017 24.6 (14:40) 6 (00:00) 15.3 5.28 (09:00) 1.67 (17:30) 0 0 0 0 0
25-10-2017 24.1 (14:40) 5.9 (00:00) 15 5.83 (14:20) 2.5 (15:00) 0 0 0 0 0

Gráficas

Temp. máximas Temp. mínimas Temp. medias Precipitaciones Rachas de viento máximas Velocidades máximas media en intervalos de 10 minutos

Datos horarios

Fecha y hora oficial Temperatura (ºC) Velocidad del viento (km/h) Dirección del viento Racha (km/h) Dirección de racha Precipitación (mm) Presión (hPa) Tendencia (hPa) Humedad (%)
2017-11-23 23:00:00 5.6 5 Noroeste 13 Sudoeste 0 -- -- 74
2017-11-23 22:00:00 4.3 5 Noroeste 15 Noroeste 0 -- -- 79
2017-11-23 21:00:00 3.7 2 Norte 16 Norte 0 -- -- 82
2017-11-23 20:00:00 4.2 2 Norte 14 Sudeste 0 -- -- 77
2017-11-23 19:00:00 5.7 6 Noroeste 13 Noroeste 0 -- -- 74
2017-11-23 18:00:00 6 3 Noroeste 8 Norte 0 -- -- 75
2017-11-23 17:00:00 8.3 3 Sur 8 Sudeste 0 -- -- 65
2017-11-23 16:00:00 9.6 2 Sur 18 Sudeste 0 -- -- 59
2017-11-23 15:00:00 13.2 9 Sudeste 22 Este 0 -- -- 40
2017-11-23 14:00:00 14.6 11 Sudeste 27 Sudeste 0 -- -- 33
2017-11-23 13:00:00 14.3 10 Sudeste 33 Sur 0 -- -- 33
2017-11-23 12:00:00 13.1 5 Sudoeste 17 Este 0 -- -- 38
2017-11-23 11:00:00 10.1 3 Sudeste 10 Norte 0 -- -- 47
2017-11-23 10:00:00 5.2 2 Sudeste 10 Noroeste 0 -- -- 72
2017-11-23 09:00:00 3.7 4 Noroeste 18 Oeste 0 -- -- 75
2017-11-23 08:00:00 2.1 3 Noroeste 9 Noroeste 0 -- -- 80
2017-11-23 07:00:00 1.6 2 Oeste 11 Noroeste 0 -- -- 80
2017-11-23 06:00:00 0.9 3 Sur 14 Oeste 0 -- -- 84
2017-11-23 05:00:00 1 4 Norte 9 Norte 0 -- -- 83
2017-11-23 04:00:00 1.3 2 Norte 10 Noroeste 0 -- -- 80
2017-11-23 03:00:00 1.4 2 Noroeste 10 Noroeste 0 -- -- 79
2017-11-23 02:00:00 0.3 2 Este 10 Noroeste 0 -- -- 83
2017-11-23 01:00:00 0.2 3 Norte 8 Noroeste 0 -- -- 83
2017-11-23 00:00:00 1.2 6 Noroeste 18 Norte 0 -- -- 76
2017-11-22 23:00:00 0.3 2 Nordeste 10 Noroeste 0 -- -- 82
2017-11-22 22:00:00 0.8 3 Noroeste 14 Sudoeste 0 -- -- 82
2017-11-22 21:00:00 1.3 3 Noroeste 12 Noroeste 0 -- -- 78
2017-11-22 20:00:00 1.8 3 Noroeste 9 Noroeste 0 -- -- 78
2017-11-22 19:00:00 2.9 3 Norte 18 Noroeste 0 -- -- 73
2017-11-22 18:00:00 4 5 Noroeste 12 Noroeste 0 -- -- 70
2017-11-22 17:00:00 5.5 3 Noroeste 17 Noroeste 0 -- -- 63
2017-11-22 16:00:00 7.8 10 Noroeste 23 Noroeste 0 -- -- 53
2017-11-22 15:00:00 8.6 4 Norte 10 Noroeste 0 -- -- 55
2017-11-22 14:00:00 13.9 5 Sur 19 Sudeste 0 -- -- 36
2017-11-22 13:00:00 15.2 6 Sur 20 Sudeste 0 -- -- 31
2017-11-22 12:00:00 13.6 3 Sudeste 15 Sudeste 0 -- -- 31
2017-11-22 11:00:00 9.8 2 Noroeste 12 Oeste 0 -- -- 51
2017-11-22 10:00:00 3.9 0 Calma 8 Norte 0 -- -- 74
2017-11-22 09:00:00 0.2 5 Noroeste 11 Noroeste 0 -- -- 82
2017-11-22 08:00:00 0.1 6 Noroeste 15 Noroeste 0 -- -- 81
2017-11-22 07:00:00 -0.1 3 Noroeste 12 Noroeste 0 -- -- 85
2017-11-22 06:00:00 0.3 3 Noroeste 12 Noroeste 0 -- -- 80
2017-11-22 05:00:00 -0.1 4 Noroeste 13 Noroeste 0 -- -- 85
2017-11-22 04:00:00 0.1 3 Noroeste 15 Oeste 0 -- -- 82
2017-11-22 03:00:00 0.3 3 Noroeste 14 Oeste 0 -- -- 81
2017-11-22 02:00:00 0.4 3 Noroeste 9 Noroeste 0 -- -- 82
2017-11-22 01:00:00 0.5 3 Noroeste 11 Noroeste 0 -- -- 82
2017-11-22 00:00:00 1 5 Noroeste 11 Noroeste 0 -- -- 78
2017-11-21 23:00:00 1.2 3 Noroeste 12 Noroeste 0 -- -- 79
2017-11-21 22:00:00 1.3 0 Calma 15 Oeste 0 -- -- 77
2017-11-21 21:00:00 2.2 3 Noroeste 12 Sudoeste 0 -- -- 73
2017-11-21 20:00:00 2.7 2 Norte 13 Noroeste 0 -- -- 73
2017-11-21 19:00:00 3.3 3 Noroeste 16 Oeste 0 -- -- 72
2017-11-21 18:00:00 4.6 4 Noroeste 14 Noroeste 0 -- -- 69
2017-11-21 17:00:00 6.3 6 Noroeste 17 Noroeste 0 -- -- 62
2017-11-21 16:00:00 7.5 8 Noroeste 16 Noroeste 0 -- -- 58
2017-11-21 15:00:00 9.6 7 Noroeste 14 Noroeste 0 -- -- 53
2017-11-21 14:00:00 12.1 4 Noroeste 9 Noroeste 0 -- -- 46
2017-11-21 13:00:00 15.2 3 Oeste 5 Noroeste 0 -- -- 38
2017-11-21 12:00:00 13.9 3 Oeste 5 Oeste 0 -- -- 41
2017-11-21 11:00:00 11.4 2 Sudoeste 19 Oeste 0 -- -- 43
2017-11-21 10:00:00 4.3 3 Oeste 8 Noroeste 0 -- -- 73
2017-11-21 09:00:00 0.4 4 Noroeste 12 Noroeste 0 -- -- 80
2017-11-21 08:00:00 -0.2 3 Noroeste 14 Sudoeste 0 -- -- 84
2017-11-21 07:00:00 0.1 4 Noroeste 14 Noroeste 0 -- -- 83
2017-11-21 06:00:00 0.3 4 Noroeste 13 Noroeste 0 -- -- 82
2017-11-21 05:00:00 0.5 5 Noroeste 14 Noroeste 0 -- -- 84
2017-11-21 04:00:00 0.6 3 Noroeste 17 Oeste 0 -- -- 83
2017-11-21 03:00:00 0.8 0 Calma 10 Noroeste 0 -- -- 84
2017-11-21 02:00:00 1.2 3 Noroeste 12 Noroeste 0 -- -- 83
2017-11-21 01:00:00 1.5 5 Noroeste 13 Nordeste 0 -- -- 82
2017-11-21 00:00:00 1.6 4 Noroeste 12 Oeste 0 -- -- 82
2017-11-20 23:00:00 1.8 3 Noroeste 12 Sudoeste 0 -- -- 83
2017-11-20 22:00:00 2.4 3 Noroeste 9 Noroeste 0 -- -- 81
2017-11-20 21:00:00 2.9 2 Noroeste 10 Noroeste 0 -- -- 79
2017-11-20 20:00:00 3.8 4 Noroeste 11 Noroeste 0 -- -- 76
2017-11-20 19:00:00 4.5 3 Noroeste 13 Sudoeste 0 -- -- 74
2017-11-20 18:00:00 5.8 5 Noroeste 13 Noroeste 0 -- -- 71
2017-11-20 17:00:00 7.5 3 Noroeste 15 Noroeste 0 -- -- 63
2017-11-20 16:00:00 8.9 5 Oeste 17 Noroeste 0 -- -- 58
2017-11-20 15:00:00 10.1 5 Noroeste 13 Noroeste 0 -- -- 55
2017-11-20 14:00:00 13 3 Noroeste 7 Oeste 0 -- -- 46
2017-11-20 13:00:00 16.4 3 Oeste 6 Oeste 0 -- -- 37
2017-11-20 12:00:00 15.3 3 Oeste 5 Sudoeste 0 -- -- 38
2017-11-20 11:00:00 12.2 0 Calma 9 Noroeste 0 -- -- 46
2017-11-20 10:00:00 6.3 4 Oeste 9 Noroeste 0 -- -- 62
2017-11-20 09:00:00 1.4 2 Este 11 Noroeste 0 -- -- 77
2017-11-20 08:00:00 1.3 3 Noroeste 14 Noroeste 0 -- -- 80
2017-11-20 07:00:00 1.7 4 Noroeste 13 Sudoeste 0 -- -- 76
2017-11-20 06:00:00 2.4 4 Noroeste 15 Sudoeste 0 -- -- 72
2017-11-20 05:00:00 3.4 3 Oeste 17 Noroeste 0 -- -- 67
2017-11-20 04:00:00 4.2 7 Noroeste 15 Noroeste 0 -- -- 62
2017-11-20 03:00:00 4.3 8 Noroeste 19 Oeste 0 -- -- 61
2017-11-20 02:00:00 4.7 9 Noroeste 23 Noroeste 0 -- -- 58
2017-11-20 01:00:00 6.6 9 Noroeste 25 Noroeste 0 -- -- 50
2017-11-20 00:00:00 5.9 8 Noroeste 23 Norte 0 -- -- 51
2017-11-19 23:00:00 6.4 9 Noroeste 27 Norte 0 -- -- 48
2017-11-19 22:00:00 7.2 9 Noroeste 21 Noroeste 0 -- -- 44
2017-11-19 21:00:00 2.2 2 Sudeste 16 Sudeste 0 -- -- 68
2017-11-19 20:00:00 3.2 2 Sudeste 14 Sudoeste 0 -- -- 67
2017-11-19 19:00:00 4 2 Noroeste 14 Sudoeste 0 -- -- 61
2017-11-19 18:00:00 5.8 5 Noroeste 14 Noroeste 0 -- -- 53
2017-11-19 17:00:00 7.9 2 Noroeste 13 Norte 0 -- -- 43
2017-11-19 16:00:00 11.4 10 Noroeste 39 Noroeste 0 -- -- 29
2017-11-19 15:00:00 14.6 16 Noroeste 42 Noroeste 0 -- -- 16
2017-11-19 14:00:00 15.4 3 Sur 22 Sudoeste 0 -- -- 25
2017-11-19 13:00:00 17.7 9 Oeste 23 Noroeste 0 -- -- 16
2017-11-19 12:00:00 13.8 4 Este 10 Sudeste 0 -- -- 24
2017-11-19 11:00:00 12.5 3 Sudeste 17 Norte 0 -- -- 31
2017-11-19 10:00:00 6.5 5 Noroeste 22 Oeste 0 -- -- 43
2017-11-19 09:00:00 0.9 3 Sur 12 Noroeste 0 -- -- 62
2017-11-19 08:00:00 -0.3 3 Noroeste 15 Noroeste 0 -- -- 61
2017-11-19 07:00:00 -0.3 4 Noroeste 14 Norte 0 -- -- 62
2017-11-19 06:00:00 -0.6 3 Noroeste 11 Noroeste 0 -- -- 64
2017-11-19 05:00:00 -0.6 3 Norte 13 Oeste 0 -- -- 62
2017-11-19 04:00:00 -0.3 4 Noroeste 14 Noroeste 0 -- -- 60
2017-11-19 03:00:00 -0.2 4 Noroeste 12 Noroeste 0 -- -- 61
2017-11-19 02:00:00 -0.6 2 Noroeste 14 Oeste 0 -- -- 63
2017-11-19 01:00:00 0 5 Oeste 14 Sudoeste 0 -- -- 56
2017-11-19 00:00:00 0.1 5 Noroeste 14 Sudoeste 0 -- -- 57
2017-11-18 23:00:00 -0.2 3 Noroeste 14 Nordeste 0 -- -- 59
2017-11-18 22:00:00 0.4 3 Noroeste 8 Noroeste 0 -- -- 60
2017-11-18 21:00:00 1.8 3 Nordeste 12 Noroeste 0 -- -- 55
2017-11-18 20:00:00 3 3 Este 17 Sudoeste 0 -- -- 43
2017-11-18 19:00:00 3.7 5 Noroeste 17 Oeste 0 -- -- 46
2017-11-18 18:00:00 3.7 3 Noroeste 14 Oeste 0 -- -- 54
2017-11-18 17:00:00 5.6 6 Oeste 15 Noroeste 0 -- -- 46
2017-11-18 16:00:00 7.3 5 Noroeste 14 Sudoeste 0 -- -- 43
2017-11-18 15:00:00 9.1 5 Norte 12 Noroeste 0 -- -- 38
2017-11-18 14:00:00 14.4 4 Oeste 15 Norte 0 -- -- 25
2017-11-18 13:00:00 16.9 6 Oeste 38 Noroeste 0 -- -- 21
2017-11-18 12:00:00 15.2 17 Noroeste 36 Oeste 0 -- -- 19
2017-11-18 11:00:00 13.1 6 Oeste 26 Noroeste 0 -- -- 31
2017-11-18 10:00:00 8.6 13 Noroeste 26 Noroeste 0 -- -- 48
2017-11-18 09:00:00 5.3 7 Noroeste 22 Noroeste 0 -- -- 61
2017-11-18 08:00:00 4.6 5 Noroeste 23 Noroeste 0 -- -- 65
2017-11-18 07:00:00 6.2 13 Norte 27 Noroeste 0 -- -- 58
2017-11-18 06:00:00 4.8 10 Noroeste 24 Noroeste 0 -- -- 67
2017-11-18 05:00:00 5 11 Noroeste 21 Noroeste 0 -- -- 67
2017-11-18 04:00:00 4.9 9 Noroeste 21 Norte 0 -- -- 68
2017-11-18 03:00:00 3.5 7 Noroeste 21 Oeste 0 -- -- 75
2017-11-18 02:00:00 3.1 3 Noroeste 14 Oeste 0 -- -- 78
2017-11-18 01:00:00 3.7 4 Noroeste 14 Sudoeste 0 -- -- 75
2017-11-18 00:00:00 4.7 6 Noroeste 18 Oeste 0 -- -- 72
2017-11-17 23:00:00 5.2 2 Noroeste 19 Oeste 0 -- -- 69
2017-11-17 22:00:00 5.8 2 Noroeste 18 Norte 0 -- -- 65
2017-11-17 21:00:00 6.7 3 Norte 21 Noroeste 0 -- -- 63
2017-11-17 20:00:00 8.2 7 Noroeste 20 Noroeste 0 -- -- 57
2017-11-17 19:00:00 8.8 12 Noroeste 25 Noroeste 0 -- -- 57
2017-11-17 18:00:00 9.7 11 Noroeste 24 Noroeste 0 -- -- 56
2017-11-17 17:00:00 11.5 12 Noroeste 26 Noroeste 0 -- -- 50
2017-11-17 16:00:00 14.5 12 Noroeste 23 Noroeste 0 -- -- 35
2017-11-17 15:00:00 14.8 10 Noroeste 25 Noroeste 0 -- -- 35
2017-11-17 14:00:00 17.2 13 Noroeste 27 Noroeste 0 -- -- 29
2017-11-17 13:00:00 17.7 15 Noroeste 32 Noroeste 0 -- -- 29
2017-11-17 12:00:00 16.2 8 Noroeste 23 Noroeste 0 -- -- 32
2017-11-17 11:00:00 12.7 12 Norte 24 Norte 0 -- -- 33
2017-11-17 10:00:00 11.7 12 Norte 23 Norte 0 -- -- 33
2017-11-17 09:00:00 9 14 Norte 27 Norte 0 -- -- 37
2017-11-17 08:00:00 7.4 15 Noroeste 29 Noroeste 0 -- -- 41
2017-11-17 07:00:00 5 2 Sur 17 Norte 0 -- -- 52
2017-11-17 06:00:00 5.5 5 Noroeste 22 Norte 0 -- -- 46
2017-11-17 05:00:00 6.9 6 Noroeste 27 Noroeste 0 -- -- 40
2017-11-17 04:00:00 8.3 12 Norte 25 Norte 0 -- -- 30
2017-11-17 03:00:00 7.2 6 Noroeste 30 Norte 0 -- -- 32
2017-11-17 02:00:00 8 11 Norte 36 Norte 0 -- -- 29
2017-11-17 01:00:00 8.3 12 Noroeste 30 Norte 0 -- -- 29
2017-11-17 00:00:00 9.4 14 Norte 33 Norte 0 -- -- 28
2017-11-16 23:00:00 8.6 12 Noroeste 27 Noroeste 0 -- -- 32
2017-11-16 22:00:00 8.2 12 Noroeste 24 Noroeste 0 -- -- 34
2017-11-16 21:00:00 8 10 Norte 24 Noroeste 0 -- -- 39
2017-11-16 20:00:00 8.2 8 Noroeste 28 Norte 0 -- -- 38
2017-11-16 19:00:00 8.2 10 Noroeste 21 Noroeste 0 -- -- 43
2017-11-16 18:00:00 9 9 Noroeste 19 Norte 0 -- -- 43
2017-11-16 17:00:00 7.3 3 Este 10 Noroeste 0 -- -- 60
2017-11-16 16:00:00 9.1 3 Norte 19 Sudeste 0 -- -- 53
2017-11-16 15:00:00 11.5 10 Este 23 Este 0 -- -- 38
2017-11-16 14:00:00 14.9 8 Sudeste 25 Este 0 -- -- 30
2017-11-16 13:00:00 14.3 10 Este 21 Este 0 -- -- 28
2017-11-16 12:00:00 12.4 8 Este 19 Sudeste 0 -- -- 34
2017-11-16 11:00:00 9.7 6 Sudeste 15 Este 0 -- -- 42
2017-11-16 10:00:00 5 3 Sudeste 13 Sudeste 0 -- -- 70
2017-11-16 09:00:00 0.4 3 Noroeste 18 Sudoeste 0 -- -- 83
2017-11-16 08:00:00 0.1 3 Noroeste 17 Sudoeste 0 -- -- 83
2017-11-16 07:00:00 0.2 3 Noroeste 8 Oeste 0 -- -- 83
2017-11-16 06:00:00 0.1 2 Noroeste 8 Nordeste 0 -- -- 83
2017-11-16 05:00:00 0.4 0 Calma 9 Oeste 0 -- -- 81
2017-11-16 04:00:00 0.7 0 Calma 9 Noroeste 0 -- -- 80
2017-11-16 03:00:00 1.3 5 Noroeste 9 Noroeste 0 -- -- 79
2017-11-16 02:00:00 1.1 2 Norte 8 Norte 0 -- -- 82
2017-11-16 01:00:00 1.5 3 Noroeste 6 Nordeste 0 -- -- 79
2017-11-16 00:00:00 2.6 3 Noroeste 9 Noroeste 0 -- -- 74
2017-11-15 23:00:00 4.7 0 Calma 17 Sudeste 0 -- -- 66
2017-11-15 22:00:00 7.1 3 Sudeste 12 Oeste 0 -- -- 52
2017-11-15 21:00:00 9.2 7 Noroeste 18 Sudoeste 0 -- -- 43
2017-11-15 20:00:00 9.7 3 Noroeste 20 Norte 0 -- -- 42
2017-11-15 19:00:00 12.1 7 Noroeste 23 Noroeste 0 -- -- 32
2017-11-15 18:00:00 12.8 10 Noroeste 21 Noroeste 0 -- -- 31
2017-11-15 17:00:00 15.2 8 Noroeste 26 Norte 0 -- -- 24
2017-11-15 16:00:00 16.3 10 Noroeste 32 Noroeste 0 -- -- 22
2017-11-15 15:00:00 16.6 13 Noroeste 32 Noroeste 0 -- -- 19
2017-11-15 14:00:00 17.9 14 Noroeste 31 Noroeste 0 -- -- 17
2017-11-15 13:00:00 18.2 16 Noroeste 33 Oeste 0 -- -- 15
2017-11-15 12:00:00 17.5 14 Noroeste 31 Noroeste 0 -- -- 17
2017-11-15 11:00:00 16.2 13 Noroeste 30 Noroeste 0 -- -- 21
2017-11-15 10:00:00 4.3 4 Noroeste 13 Norte 0 -- -- 63
2017-11-15 09:00:00 0.1 3 Noroeste 14 Nordeste 0 -- -- 72
2017-11-15 08:00:00 -1.1 0 Calma 15 Sudoeste 0 -- -- 72
2017-11-15 07:00:00 -1 4 Sudeste 9 Sur 0 -- -- 74
2017-11-15 06:00:00 -0.9 2 Norte 8 Oeste 0 -- -- 73
2017-11-15 05:00:00 -1.6 3 Noroeste 8 Norte 0 -- -- 70
2017-11-15 04:00:00 -1.6 3 Noroeste 8 Norte 0 -- -- 67
2017-11-15 03:00:00 -1.5 2 Norte 8 Norte 0 -- -- 68
2017-11-15 02:00:00 -1.4 3 Noroeste 13 Norte 0 -- -- 64
2017-11-15 01:00:00 -1.1 0 Calma 13 Nordeste 0 -- -- 62
2017-11-15 00:00:00 -0.2 3 Noroeste 14 Sudeste 0 -- -- 59
2017-11-14 23:00:00 -0.1 2 Norte 15 Sudoeste 0 -- -- 60
2017-11-14 22:00:00 1.1 0 Calma 15 Sudoeste 0 -- -- 56
2017-11-14 21:00:00 2.8 3 Sur 8 Este 0 -- -- 52
2017-11-14 20:00:00 6.4 5 Sudeste 33 Noroeste 0 -- -- 36
2017-11-14 19:00:00 11.6 17 Noroeste 50 Noroeste 0 -- -- 9
2017-11-14 18:00:00 11.3 19 Noroeste 50 Noroeste 0 -- -- 11
2017-11-14 17:00:00 11.1 17 Noroeste 51 Noroeste 0 -- -- 14
2017-11-14 16:00:00 10.8 26 Noroeste 59 Noroeste 0 -- -- 13
2017-11-14 15:00:00 10.5 28 Noroeste 65 Noroeste 0 -- -- 13
2017-11-14 14:00:00 11 31 Noroeste 68 Noroeste 0 -- -- 13
2017-11-14 13:00:00 11.3 32 Noroeste 73 Noroeste 0 -- -- 13
2017-11-14 12:00:00 10.9 31 Noroeste 75 Noroeste 0 -- -- 12
2017-11-14 11:00:00 10.5 35 Noroeste 80 Noroeste 0 -- -- 11
2017-11-14 10:00:00 9.7 33 Noroeste 68 Noroeste 0 -- -- 10
2017-11-14 09:00:00 8.2 29 Noroeste 68 Noroeste 0 -- -- 10
2017-11-14 08:00:00 8 32 Noroeste 66 Noroeste 0 -- -- 10
2017-11-14 07:00:00 7.6 34 Noroeste 76 Noroeste 0 -- -- 11
2017-11-14 06:00:00 7.2 34 Noroeste 69 Noroeste 0 -- -- 12
2017-11-14 05:00:00 6.4 29 Noroeste 71 Noroeste 0 -- -- 16
2017-11-14 04:00:00 6.7 31 Noroeste 66 Noroeste 0 -- -- 14
2017-11-14 03:00:00 6.3 31 Noroeste 70 Noroeste 0 -- -- 14
2017-11-14 02:00:00 4.7 30 Noroeste 74 Noroeste 0 -- -- 23
2017-11-14 01:00:00 3.8 32 Noroeste 77 Noroeste 0 -- -- 31
2017-11-14 00:00:00 3.7 31 Noroeste 67 Noroeste 0 -- -- 31
2017-11-13 23:00:00 3.7 30 Noroeste 68 Oeste 0 -- -- 30
2017-11-13 22:00:00 3.7 31 Noroeste 81 Noroeste 0 -- -- 29
2017-11-13 21:00:00 4.3 28 Noroeste 78 Noroeste 0 -- -- 22
2017-11-13 20:00:00 4.5 28 Noroeste 69 Noroeste 0 -- -- 22
2017-11-13 19:00:00 4.8 31 Noroeste 73 Noroeste 0 -- -- 22
2017-11-13 18:00:00 5.1 30 Noroeste 70 Noroeste 0 -- -- 23
2017-11-13 17:00:00 5.2 30 Noroeste 71 Noroeste 0 -- -- 24
2017-11-13 16:00:00 5.3 27 Noroeste 70 Noroeste 0 -- -- 26
2017-11-13 15:00:00 5.5 27 Noroeste 61 Noroeste 0 -- -- 24
2017-11-13 14:00:00 6.7 27 Noroeste 64 Noroeste 0 -- -- 21
2017-11-13 13:00:00 6.9 25 Noroeste 59 Noroeste 0 -- -- 22
2017-11-13 12:00:00 6.2 26 Noroeste 58 Noroeste 0 -- -- 23
2017-11-13 11:00:00 5.4 27 Noroeste 70 Noroeste 0 -- -- 26
2017-11-13 10:00:00 4.9 25 Noroeste 62 Noroeste 0 -- -- 27
2017-11-13 09:00:00 4 25 Noroeste 58 Oeste 0 -- -- 31
2017-11-13 08:00:00 4.6 26 Noroeste 67 Noroeste 0 -- -- 38
2017-11-13 07:00:00 5.2 24 Noroeste 66 Noroeste 0 -- -- 35
2017-11-13 06:00:00 5.6 26 Noroeste 66 Noroeste 0 -- -- 37
2017-11-13 05:00:00 6.6 24 Noroeste 69 Noroeste 0 -- -- 37
2017-11-13 04:00:00 7.3 23 Noroeste 66 Noroeste 0 -- -- 41
2017-11-13 03:00:00 8.1 28 Noroeste 87 Noroeste 0 -- -- 37
2017-11-13 02:00:00 9.7 29 Noroeste 76 Noroeste 0 -- -- 32
2017-11-13 01:00:00 10.7 23 Noroeste 69 Noroeste 0 -- -- 30
2017-11-13 00:00:00 11.7 21 Noroeste 53 Norte 0 -- -- 34
2017-11-12 23:00:00 12.1 19 Noroeste 58 Noroeste 0 -- -- 40
2017-11-12 22:00:00 12.9 21 Noroeste 52 Noroeste 0 -- -- 33
2017-11-12 21:00:00 12.8 15 Noroeste 46 Noroeste 0 -- -- 36
2017-11-12 20:00:00 13 16 Noroeste 40 Noroeste 0 -- -- 44
2017-11-12 19:00:00 12.7 10 Noroeste 28 Noroeste 0 -- -- 48
2017-11-12 18:00:00 12.5 6 Noroeste 23 Noroeste 0 -- -- 47
2017-11-12 17:00:00 12.8 7 Noroeste 34 Noroeste 0 -- -- 43
2017-11-12 16:00:00 13.8 10 Noroeste 35 Noroeste 0 -- -- 42
2017-11-12 15:00:00 14.2 17 Noroeste 47 Noroeste 0 -- -- 40
2017-11-12 14:00:00 15 23 Noroeste 59 Norte 0 -- -- 34
2017-11-12 13:00:00 16.8 14 Noroeste 32 Noroeste 0 -- -- 27
2017-11-12 12:00:00 16.2 14 Noroeste 33 Noroeste 0 -- -- 29
2017-11-12 11:00:00 14.9 15 Noroeste 40 Norte 0 -- -- 32
2017-11-12 10:00:00 12.9 13 Noroeste 33 Noroeste 0 -- -- 38
2017-11-12 09:00:00 4.6 3 Noroeste 11 Norte 0 -- -- 68
2017-11-12 08:00:00 5.3 2 Norte 19 Noroeste 0 -- -- 67
2017-11-12 07:00:00 6.4 8 Noroeste 17 Noroeste 0 -- -- 64
2017-11-12 06:00:00 6.4 4 Norte 23 Noroeste 0 -- -- 71
2017-11-12 05:00:00 7.6 10 Noroeste 23 Noroeste 0 -- -- 68
2017-11-12 04:00:00 7.7 7 Noroeste 19 Noroeste 0 -- -- 70
2017-11-12 03:00:00 7.1 4 Norte 11 Norte 0 -- -- 76
2017-11-12 02:00:00 10.6 5 Norte 33 Noroeste 0 -- -- 60
2017-11-12 01:00:00 11.7 13 Noroeste 26 Noroeste 0 -- -- 57
2017-11-12 00:00:00 8.9 3 Sudeste 17 Noroeste 0 -- -- 63
2017-11-11 23:00:00 12.8 9 Norte 44 Noroeste 0 -- -- 46
2017-11-11 22:00:00 13.5 24 Noroeste 50 Noroeste 0 -- -- 39
2017-11-11 21:00:00 13.3 21 Noroeste 42 Noroeste 0 -- -- 37
2017-11-11 20:00:00 13.6 20 Noroeste 48 Noroeste 0 -- -- 34
2017-11-11 19:00:00 13.7 14 Noroeste 42 Noroeste 0 -- -- 34
2017-11-11 18:00:00 12.8 10 Noroeste 33 Noroeste 0 -- -- 37
2017-11-11 17:00:00 12.4 14 Norte 36 Noroeste 0 -- -- 37
2017-11-11 16:00:00 13.2 13 Noroeste 32 Noroeste 0 -- -- 36
2017-11-11 15:00:00 13.5 12 Noroeste 34 Noroeste 0 -- -- 37
2017-11-11 14:00:00 13.6 11 Noroeste 29 Noroeste 0 -- -- 37
2017-11-11 13:00:00 12.5 13 Noroeste 28 Noroeste 0 -- -- 45
2017-11-11 12:00:00 12.7 14 Noroeste 33 Oeste 0 -- -- 47
2017-11-11 11:00:00 12.4 12 Noroeste 30 Noroeste 0 -- -- 47
2017-11-11 10:00:00 11.9 10 Noroeste 29 Noroeste 0 -- -- 48
2017-11-11 09:00:00 10.9 9 Noroeste 30 Noroeste 0 -- -- 52
2017-11-11 08:00:00 10.6 13 Norte 30 Norte 0 -- -- 54
2017-11-11 07:00:00 10.6 10 Noroeste 31 Noroeste 0 -- -- 54
2017-11-11 06:00:00 10.8 13 Noroeste 31 Noroeste 0 -- -- 51
2017-11-11 05:00:00 10.2 9 Noroeste 24 Noroeste 0 -- -- 51
2017-11-11 04:00:00 10.4 9 Noroeste 29 Noroeste 0 -- -- 51
2017-11-11 03:00:00 10.7 12 Noroeste 32 Noroeste 0 -- -- 50
2017-11-11 02:00:00 10.6 14 Noroeste 32 Oeste 0 -- -- 49
2017-11-11 01:00:00 10.5 9 Noroeste 40 Noroeste 0 -- -- 45
2017-11-11 00:00:00 10.8 10 Noroeste 33 Noroeste 0 -- -- 43
2017-11-10 23:00:00 11.2 12 Noroeste 41 Noroeste 0 -- -- 43
2017-11-10 22:00:00 11.6 17 Noroeste 56 Noroeste 0 -- -- 40
2017-11-10 21:00:00 11.7 21 Noroeste 52 Noroeste 0 -- -- 40
2017-11-10 20:00:00 11.5 20 Noroeste 58 Noroeste 0 -- -- 41
2017-11-10 19:00:00 11.1 24 Noroeste 67 Noroeste 0 -- -- 41
2017-11-10 18:00:00 12 24 Noroeste 49 Noroeste 0 -- -- 36
2017-11-10 17:00:00 11.9 17 Noroeste 56 Oeste 0 -- -- 38
2017-11-10 16:00:00 11.7 26 Noroeste 49 Noroeste 0 -- -- 40
2017-11-10 15:00:00 11.9 16 Noroeste 45 Noroeste 0 -- -- 39
2017-11-10 14:00:00 13.2 19 Noroeste 48 Noroeste 0 -- -- 35
2017-11-10 13:00:00 13.2 20 Noroeste 46 Noroeste 0 -- -- 37
2017-11-10 12:00:00 12.9 19 Noroeste 45 Noroeste 0 -- -- 40
2017-11-10 11:00:00 11.1 19 Noroeste 45 Noroeste 0 -- -- 45
2017-11-10 10:00:00 11 19 Noroeste 47 Noroeste 0 -- -- 41
2017-11-10 09:00:00 8.9 22 Noroeste 49 Noroeste 0 -- -- 46
2017-11-10 08:00:00 8.2 18 Noroeste 57 Noroeste 0 -- -- 44
2017-11-10 07:00:00 7.8 23 Noroeste 62 Noroeste 0 -- -- 33
2017-11-10 06:00:00 7 24 Noroeste 51 Oeste 0 -- -- 29
2017-11-10 05:00:00 6.1 18 Noroeste 49 Noroeste 0 -- -- 47
2017-11-10 04:00:00 5.7 18 Noroeste 53 Noroeste 0 -- -- 48
2017-11-10 03:00:00 5.8 19 Noroeste 42 Noroeste 0 -- -- 47
2017-11-10 02:00:00 5.9 23 Noroeste 55 Noroeste 0 -- -- 47
2017-11-10 01:00:00 6 20 Noroeste 46 Noroeste 0 -- -- 46
2017-11-10 00:00:00 6.2 22 Noroeste 48 Noroeste 0 -- -- 47
2017-11-09 23:00:00 6.6 19 Noroeste 51 Noroeste 0 -- -- 46
2017-11-09 22:00:00 6.9 18 Noroeste 41 Oeste 0 -- -- 45
2017-11-09 21:00:00 7 18 Noroeste 50 Noroeste 0 -- -- 45
2017-11-09 20:00:00 7.2 20 Noroeste 51 Noroeste 0 -- -- 43
2017-11-09 19:00:00 7.1 24 Noroeste 51 Noroeste 0 -- -- 45
2017-11-09 18:00:00 7 21 Noroeste 45 Noroeste 0 -- -- 49
2017-11-09 17:00:00 7.4 17 Noroeste 39 Noroeste 0 -- -- 49
2017-11-09 16:00:00 7.8 16 Noroeste 37 Noroeste 0 -- -- 47
2017-11-09 15:00:00 8.5 19 Noroeste 50 Noroeste 0 -- -- 41
2017-11-09 14:00:00 9.4 23 Noroeste 62 Noroeste 0 -- -- 39
2017-11-09 13:00:00 10 24 Noroeste 57 Noroeste 0 -- -- 35
2017-11-09 12:00:00 8.7 22 Noroeste 47 Norte 0 -- -- 41
2017-11-09 11:00:00 7.7 13 Noroeste 30 Noroeste 0 -- -- 45
2017-11-09 10:00:00 7.5 16 Noroeste 36 Noroeste 0 -- -- 44
2017-11-09 09:00:00 5.8 17 Noroeste 40 Noroeste 0 -- -- 54
2017-11-09 08:00:00 5.3 14 Noroeste 32 Noroeste 0 -- -- 60
2017-11-09 07:00:00 6.1 16 Noroeste 45 Noroeste 0 -- -- 50
2017-11-09 06:00:00 6 19 Noroeste 45 Noroeste 0 -- -- 48
2017-11-09 05:00:00 4.9 18 Noroeste 34 Noroeste 0 -- -- 56
2017-11-09 04:00:00 4.8 14 Noroeste 35 Noroeste 0 -- -- 61
2017-11-09 03:00:00 5.1 14 Noroeste 29 Noroeste 0 -- -- 55
2017-11-09 02:00:00 5.2 13 Noroeste 33 Noroeste 0 -- -- 48
2017-11-09 01:00:00 5.1 14 Noroeste 37 Noroeste 0 -- -- 46
2017-11-09 00:00:00 4.7 17 Noroeste 41 Noroeste 0 -- -- 46
2017-11-08 23:00:00 4.2 15 Noroeste 32 Noroeste 0 -- -- 42
2017-11-08 22:00:00 4 13 Noroeste 29 Noroeste 0 -- -- 40
2017-11-08 21:00:00 4.1 8 Noroeste 26 Noroeste 0 -- -- 43
2017-11-08 20:00:00 4 6 Noroeste 18 Noroeste 0 -- -- 51
2017-11-08 19:00:00 4.4 5 Noroeste 27 Noroeste 0 -- -- 50
2017-11-08 18:00:00 5.6 8 Noroeste 29 Oeste 0 -- -- 44
2017-11-08 17:00:00 6.5 12 Noroeste 29 Noroeste 0 -- -- 42
2017-11-08 16:00:00 7.5 11 Noroeste 29 Noroeste 0 -- -- 41
2017-11-08 15:00:00 7.5 12 Noroeste 33 Noroeste 0 -- -- 38
2017-11-08 14:00:00 8.2 15 Noroeste 41 Noroeste 0 -- -- 36
2017-11-08 13:00:00 9.6 17 Noroeste 42 Noroeste 0 -- -- 33
2017-11-08 12:00:00 9 16 Noroeste 59 Noroeste 0 -- -- 41
2017-11-08 11:00:00 8.2 17 Noroeste 39 Noroeste 0 -- -- 48
2017-11-08 10:00:00 8.9 15 Noroeste 28 Noroeste 0 -- -- 43
2017-11-08 09:00:00 5.5 3 Noroeste 28 Noroeste 0 -- -- 54
2017-11-08 08:00:00 6.4 10 Norte 30 Noroeste 0 -- -- 47
2017-11-08 07:00:00 5.8 11 Noroeste 33 Noroeste 0 -- -- 51
2017-11-08 06:00:00 7 17 Noroeste 39 Noroeste 0 -- -- 45
2017-11-08 05:00:00 6.7 14 Noroeste 35 Noroeste 0 -- -- 55
2017-11-08 04:00:00 1.2 3 Noroeste 15 Sudoeste 0 -- -- 86
2017-11-08 03:00:00 1.2 2 Noroeste 7 Sudeste 0 -- -- 83
2017-11-08 02:00:00 0.5 2 Este 8 Norte 0 -- -- 84
2017-11-08 01:00:00 0.9 3 Norte 11 Noroeste 0 -- -- 81
2017-11-08 00:00:00 1 5 Noroeste 10 Noroeste 0 -- -- 80
2017-11-07 23:00:00 1.1 3 Noroeste 13 Noroeste 0 -- -- 78
2017-11-07 22:00:00 0 3 Noroeste 13 Sudoeste 0 -- -- 82
2017-11-07 21:00:00 -0.2 0 Calma 7 Este 0 -- -- 83
2017-11-07 20:00:00 0.6 3 Norte 10 Noroeste 0 -- -- 80
2017-11-07 19:00:00 1.6 6 Norte 11 Noroeste 0 -- -- 75
2017-11-07 18:00:00 2.4 4 Noroeste 8 Noroeste 0 -- -- 73
2017-11-07 17:00:00 3.8 2 Norte 9 Noroeste 0 -- -- 66
2017-11-07 16:00:00 5.5 2 Norte 6 Noroeste 0 -- -- 60
2017-11-07 15:00:00 7.4 4 Noroeste 18 Este 0 -- -- 52
2017-11-07 14:00:00 14.1 5 Sudeste 19 Este 0 -- -- 27
2017-11-07 13:00:00 13.6 8 Sudeste 21 Este 0 -- -- 22
2017-11-07 12:00:00 13 6 Sudeste 20 Sudeste 0 -- -- 23
2017-11-07 11:00:00 9.8 4 Este 15 Este 0 -- -- 26
2017-11-07 10:00:00 7.8 5 Sudeste 34 Norte 0 -- -- 27
2017-11-07 09:00:00 3.7 12 Noroeste 34 Norte 0 -- -- 29
2017-11-07 08:00:00 3.4 14 Norte 32 Norte 0 -- -- 27
2017-11-07 07:00:00 2.7 11 Norte 30 Norte 0 -- -- 28
2017-11-07 06:00:00 3 12 Noroeste 52 Noroeste 0 -- -- 28
2017-11-07 05:00:00 5.5 19 Noroeste 47 Noroeste 0 -- -- 18
2017-11-07 04:00:00 6.3 23 Noroeste 53 Noroeste 0 -- -- 14
2017-11-07 03:00:00 6.3 26 Noroeste 62 Noroeste 0 -- -- 13
2017-11-07 02:00:00 5.5 26 Noroeste 71 Noroeste 0 -- -- 14
2017-11-07 01:00:00 5 26 Noroeste 58 Noroeste 0 -- -- 14
2017-11-07 00:00:00 4.3 27 Noroeste 68 Noroeste 0 -- -- 18
2017-11-06 23:00:00 3.4 33 Noroeste 71 Noroeste 0 -- -- 27
2017-11-06 22:00:00 3.2 31 Noroeste 71 Noroeste 0 -- -- 34
2017-11-06 21:00:00 3.4 28 Noroeste 74 Noroeste 0 -- -- 34
2017-11-06 20:00:00 3.8 23 Noroeste 66 Noroeste 0 -- -- 34
2017-11-06 19:00:00 4.2 27 Noroeste 61 Noroeste 0 -- -- 36
2017-11-06 18:00:00 4.5 26 Noroeste 73 Noroeste 0 -- -- 33
2017-11-06 17:00:00 5 29 Noroeste 64 Oeste 0 -- -- 33
2017-11-06 16:00:00 5.4 22 Noroeste 66 Noroeste 0 -- -- 30
2017-11-06 15:00:00 5.8 27 Noroeste 73 Oeste 0 -- -- 32
2017-11-06 14:00:00 7.1 22 Noroeste 68 Noroeste 0 -- -- 35
2017-11-06 13:00:00 7.5 20 Noroeste 68 Oeste 0 -- -- 32
2017-11-06 12:00:00 7 26 Noroeste 64 Noroeste 0 -- -- 34
2017-11-06 11:00:00 6.6 24 Noroeste 54 Noroeste 0 -- -- 34
2017-11-06 10:00:00 5.6 25 Noroeste 49 Oeste 0 -- -- 34
2017-11-06 09:00:00 4 19 Noroeste 45 Noroeste 0 -- -- 40
2017-11-06 08:00:00 3.1 10 Norte 35 Noroeste 0 -- -- 48
2017-11-06 07:00:00 2.8 9 Noroeste 30 Noroeste 0 -- -- 62
2017-11-06 06:00:00 1.6 2 Noroeste 26 Norte 0 -- -- 90
2017-11-06 05:00:00 2.1 14 Noroeste 32 Oeste 0 -- -- 83
2017-11-06 04:00:00 2.1 4 Oeste 18 Noroeste 0 -- -- 88
2017-11-06 03:00:00 2.1 0 Calma 15 Norte 0 -- -- 95
2017-11-06 02:00:00 2.1 5 Noroeste 14 Noroeste 0 -- -- 92
2017-11-06 01:00:00 2.8 4 Noroeste 11 Norte 0 -- -- 90
2017-11-06 00:00:00 3 3 Noroeste 19 Noroeste 0 -- -- 91
2017-11-05 23:00:00 3.3 7 Norte 24 Norte 0 -- -- 91
2017-11-05 22:00:00 4 2 Sudoeste 16 Noroeste 0 -- -- 91
2017-11-05 21:00:00 4.2 6 Norte 19 Oeste 0 -- -- 87
2017-11-05 20:00:00 5.3 9 Norte 23 Noroeste 0 -- -- 78
2017-11-05 19:00:00 7.2 10 Noroeste 41 Noroeste 0 -- -- 58
2017-11-05 18:00:00 9.1 11 Noroeste 42 Noroeste 0 -- -- 42
2017-11-05 17:00:00 9.2 17 Noroeste 45 Norte 0 -- -- 43
2017-11-05 16:00:00 10 9 Noroeste 29 Noroeste 0 -- -- 41
2017-11-05 15:00:00 10 17 Noroeste 36 Noroeste 0 -- -- 43
2017-11-05 14:00:00 10.6 14 Noroeste 44 Noroeste 0 -- -- 43
2017-11-05 13:00:00 11.6 19 Noroeste 49 Noroeste 0 -- -- 40
2017-11-05 12:00:00 11.7 19 Noroeste 44 Norte 0 -- -- 36
2017-11-05 11:00:00 11.1 18 Noroeste 46 Noroeste 0 -- -- 38
2017-11-05 10:00:00 9.8 18 Noroeste 42 Noroeste 0 -- -- 37
2017-11-05 09:00:00 8.3 13 Noroeste 38 Noroeste 0 -- -- 59
2017-11-05 08:00:00 9 12 Norte 31 Noroeste 0 -- -- 58
2017-11-05 07:00:00 9.4 12 Noroeste 36 Noroeste 0 -- -- 59
2017-11-05 06:00:00 9.6 11 Noroeste 40 Noroeste 0 -- -- 58
2017-11-05 05:00:00 10.2 13 Noroeste 39 Noroeste 0 -- -- 59
2017-11-05 04:00:00 9.8 12 Noroeste 30 Noroeste 0 -- -- 66
2017-11-05 03:00:00 7.5 6 Noroeste 18 Noroeste 0 -- -- 86
2017-11-05 02:00:00 7.2 4 Noroeste 22 Norte 0 -- -- 90
2017-11-05 01:00:00 7.8 9 Noroeste 19 Noroeste 0.2 -- -- 88
2017-11-05 00:00:00 7.3 5 Norte 21 Norte 0 -- -- 94
2017-11-04 23:00:00 6.9 7 Noroeste 22 Norte 0 -- -- 95
2017-11-04 22:00:00 6.9 8 Norte 21 Norte 0 -- -- 97
2017-11-04 21:00:00 6.4 3 Norte 14 Este 0 -- -- 97
2017-11-04 20:00:00 7.4 2 Sudoeste 12 Norte 0 -- -- 96
2017-11-04 19:00:00 7.7 3 Noroeste 8 Noroeste 0 -- -- 96
2017-11-04 18:00:00 9.5 5 Norte 16 Norte 0 -- -- 94
2017-11-04 17:00:00 10.2 2 Noroeste 12 Norte 0 -- -- 91
2017-11-04 16:00:00 10.7 6 Norte 13 Noroeste 0 -- -- 80
2017-11-04 15:00:00 10.5 6 Norte 21 Noroeste 0.2 -- -- 76
2017-11-04 14:00:00 10.4 8 Norte 15 Norte 0 -- -- 78
2017-11-04 13:00:00 9.3 6 Norte 14 Norte 0 -- -- 87
2017-11-04 12:00:00 8.3 10 Norte 24 Norte 0.2 -- -- 89
2017-11-04 11:00:00 8.5 7 Noroeste 18 Norte 0.2 -- -- 92
2017-11-04 10:00:00 8.9 0 Calma 6 Norte 0.6 -- -- 98
2017-11-04 09:00:00 8.8 2 Este 22 Norte 0.4 -- -- 97
2017-11-04 08:00:00 8.4 4 Noroeste 13 Norte 0 -- -- 98
2017-11-04 07:00:00 8.1 0 Calma 4 Norte 0 -- -- 97
2017-11-04 06:00:00 8.8 5 Nordeste 18 Norte 0 -- -- 97
2017-11-04 05:00:00 9 3 Noroeste 14 Norte 0.2 -- -- 97
2017-11-04 04:00:00 9.3 3 Noroeste 19 Norte 1.8 -- -- 97
2017-11-04 03:00:00 8.6 0 Calma 10 Este 0 -- -- 97
2017-11-04 02:00:00 8.2 0 Calma 5 Sur 0 -- -- 95
2017-11-04 01:00:00 8.1 0 Calma 15 Nordeste 0 -- -- 93
2017-11-04 00:00:00 8.3 2 Noroeste 5 Norte 0 -- -- 93
2017-11-03 23:00:00 8.6 2 Norte 4 Norte 0 -- -- 91
2017-11-03 22:00:00 9.5 0 Calma 6 Norte 0 -- -- 88
2017-11-03 21:00:00 10.5 3 Norte 6 Este 0 -- -- 86
2017-11-03 20:00:00 11.3 3 Sudeste 6 Sudeste 0 -- -- 80
2017-11-03 19:00:00 12.5 2 Sudeste 22 Este 0 -- -- 74
2017-11-03 18:00:00 13.9 5 Sudeste 20 Este 0 -- -- 67
2017-11-03 17:00:00 14.3 5 Sur 11 Sudeste 0 -- -- 67
2017-11-03 16:00:00 15 4 Sur 21 Sur 0 -- -- 65
2017-11-03 15:00:00 15.5 5 Sudeste 23 Sur 0 -- -- 62
2017-11-03 14:00:00 17.3 7 Sudeste 25 Sur 0 -- -- 56
2017-11-03 13:00:00 16.8 8 Sudeste 27 Sur 0 -- -- 56
2017-11-03 12:00:00 15.7 7 Sudeste 31 Sur 0 -- -- 57
2017-11-03 11:00:00 12.6 2 Noroeste 10 Este 0 -- -- 71
2017-11-03 10:00:00 9 0 Calma 10 Este 0 -- -- 84
2017-11-03 09:00:00 4.8 2 Noroeste 8 Noroeste 0 -- -- 96
2017-11-03 08:00:00 4.9 2 Oeste 10 Noroeste 0 -- -- 95
2017-11-03 07:00:00 5.6 4 Noroeste 15 Norte 0 -- -- 93
2017-11-03 06:00:00 5 3 Noroeste 14 Noroeste 0 -- -- 95
2017-11-03 05:00:00 5.4 5 Noroeste 12 Norte 0 -- -- 96
2017-11-03 04:00:00 5.7 2 Norte 9 Oeste 0 -- -- 95
2017-11-03 03:00:00 6.3 3 Noroeste 16 Norte 0 -- -- 96
2017-11-03 02:00:00 5.8 3 Noroeste 14 Nordeste 0 -- -- 96
2017-11-03 01:00:00 5.7 2 Norte 11 Noroeste 0 -- -- 97
2017-11-03 00:00:00 5.3 4 Noroeste 6 Oeste 0 -- -- 97
2017-11-02 23:00:00 5.7 2 Norte 6 Noroeste 0 -- -- 96
2017-11-02 22:00:00 6.2 2 Noroeste 10 Noroeste 0 -- -- 93
2017-11-02 21:00:00 7.3 2 Noroeste 9 Noroeste 0 -- -- 91
2017-11-02 20:00:00 8.1 3 Noroeste 12 Norte 0 -- -- 88
2017-11-02 19:00:00 8.7 3 Noroeste 8 Noroeste 0 -- -- 88
2017-11-02 18:00:00 10.8 4 Noroeste 16 Nordeste 0 -- -- 81
2017-11-02 17:00:00 13.3 0 Calma 14 Nordeste 0 -- -- 73
2017-11-02 16:00:00 14.6 7 Sur 18 Sudeste 0 -- -- 59
2017-11-02 15:00:00 14.6 5 Sudeste 21 Sudeste 0 -- -- 62
2017-11-02 14:00:00 14.3 9 Sudeste 25 Sur 0 -- -- 63
2017-11-02 13:00:00 13.5 7 Sudeste 23 Sudeste 0 -- -- 64
2017-11-02 12:00:00 12.6 3 Este 14 Este 0 -- -- 64
2017-11-02 11:00:00 10.9 0 Calma 4 Norte 0 -- -- 74
2017-11-02 10:00:00 8.2 0 Calma 14 Nordeste 0 -- -- 88
2017-11-02 09:00:00 6.4 5 Noroeste 13 Norte 0 -- -- 93
2017-11-02 08:00:00 5 3 Noroeste 14 Norte 0 -- -- 97
2017-11-02 07:00:00 4.4 0 Calma 16 Norte 0 -- -- 96
2017-11-02 06:00:00 4.7 5 Noroeste 15 Norte 0 -- -- 97
2017-11-02 05:00:00 4.1 2 Sudeste 14 Norte 0 -- -- 98
2017-11-02 04:00:00 3.6 3 Noroeste 14 Norte 0 -- -- 98
2017-11-02 03:00:00 3.7 0 Calma 8 Noroeste 0 -- -- 97
2017-11-02 02:00:00 4 0 Calma 8 Noroeste 0 -- -- 97
2017-11-02 01:00:00 4.4 2 Norte 15 Nordeste 0 -- -- 97
2017-11-02 00:00:00 4.9 4 Norte 16 Nordeste 0 -- -- 96
2017-11-01 23:00:00 5.7 3 Norte 5 Oeste 0 -- -- 94
2017-11-01 22:00:00 6.5 0 Calma 13 Norte 0 -- -- 89
2017-11-01 21:00:00 7.3 4 Noroeste 15 Norte 0 -- -- 89
2017-11-01 20:00:00 8.2 2 Norte 9 Noroeste 0 -- -- 86
2017-11-01 19:00:00 9.4 4 Noroeste 14 Noroeste 0 -- -- 82
2017-11-01 18:00:00 10.1 5 Noroeste 10 Noroeste 0 -- -- 81
2017-11-01 17:00:00 10.4 4 Noroeste 10 Noroeste 0 -- -- 80
2017-11-01 16:00:00 11.2 3 Noroeste 15 Este 0 -- -- 77
2017-11-01 15:00:00 12.9 3 Sur 20 Sudeste 0 -- -- 67
2017-11-01 14:00:00 14.9 6 Sudeste 23 Este 0 -- -- 55
2017-11-01 13:00:00 14.5 6 Sudeste 23 Sur 0 -- -- 54
2017-11-01 12:00:00 15.3 7 Sudeste 16 Sur 0 -- -- 53
2017-11-01 11:00:00 11.1 4 Noroeste 8 Noroeste 0 -- -- 69
2017-11-01 10:00:00 5.4 0 Calma 13 Nordeste 0 -- -- 96
2017-11-01 09:00:00 3.2 0 Calma 9 Noroeste 0 -- -- 97
2017-11-01 08:00:00 2.5 3 Oeste 17 Oeste 0 -- -- 97
2017-11-01 07:00:00 2.5 2 Noroeste 14 Oeste 0 -- -- 97
2017-11-01 06:00:00 3.1 2 Noroeste 8 Norte 0 -- -- 96
2017-11-01 05:00:00 3.6 0 Calma 8 Norte 0 -- -- 95
2017-11-01 04:00:00 4.5 3 Noroeste 10 Oeste 0 -- -- 93
2017-11-01 03:00:00 5.1 3 Noroeste 10 Noroeste 0 -- -- 95
2017-11-01 02:00:00 4 3 Noroeste 12 Norte 0 -- -- 97
2017-11-01 01:00:00 4.3 2 Noroeste 6 Noroeste 0 -- -- 95
2017-11-01 00:00:00 4.9 0 Calma 7 Norte 0 -- -- 91
2017-10-31 23:00:00 6.3 0 Calma 8 Noroeste 0 -- -- 88
2017-10-31 22:00:00 7 0 Calma 9 Noroeste 0 -- -- 85
2017-10-31 21:00:00 7.5 5 Noroeste 18 Noroeste 0 -- -- 82
2017-10-31 20:00:00 7.3 5 Noroeste 14 Norte 0 -- -- 84
2017-10-31 19:00:00 7.2 3 Noroeste 10 Noroeste 0 -- -- 84
2017-10-31 18:00:00 8.5 5 Noroeste 15 Norte 0 -- -- 78
2017-10-31 17:00:00 10.5 6 Noroeste 21 Este 0 -- -- 72
2017-10-31 16:00:00 12.6 5 Sudeste 22 Este 0 -- -- 68
2017-10-31 15:00:00 13.6 6 Sur 27 Sur 0 -- -- 62
2017-10-31 14:00:00 15.9 13 Sur 31 Sur 0 -- -- 53
2017-10-31 13:00:00 16.2 8 Sudeste 26 Sur 0 -- -- 52
2017-10-31 12:00:00 15 10 Sur 26 Sur 0 -- -- 53
2017-10-31 11:00:00 12.2 3 Sudeste 8 Este 0 -- -- 54
2017-10-31 10:00:00 7.3 0 Calma 5 Este 0 -- -- 75
2017-10-31 09:00:00 1.8 0 Calma 8 Noroeste 0 -- -- 92
2017-10-31 08:00:00 1.4 3 Noroeste 12 Sudoeste 0 -- -- 90
2017-10-31 07:00:00 1.3 0 Calma 16 Noroeste 0 -- -- 91
2017-10-31 06:00:00 1.8 3 Noroeste 10 Noroeste 0 -- -- 89
2017-10-31 05:00:00 2 3 Noroeste 7 Noroeste 0 -- -- 89
2017-10-31 04:00:00 2.6 3 Noroeste 14 Norte 0 -- -- 86
2017-10-31 03:00:00 3 4 Noroeste 13 Sudoeste 0 -- -- 83
2017-10-31 02:00:00 3.2 3 Noroeste 10 Noroeste 0 -- -- 83
2017-10-31 01:00:00 3.2 3 Noroeste 8 Noroeste 0 -- -- 81
2017-10-31 00:00:00 3.7 2 Noroeste 13 Nordeste 0 -- -- 80
2017-10-30 23:00:00 4.5 3 Noroeste 10 Noroeste 0 -- -- 76
2017-10-30 22:00:00 5 3 Noroeste 8 Noroeste 0 -- -- 75
2017-10-30 21:00:00 6.7 0 Calma 13 Noroeste 0 -- -- 67
2017-10-30 20:00:00 8.7 2 Este 22 Noroeste 0 -- -- 64
2017-10-30 19:00:00 11.6 6 Norte 25 Noroeste 0 -- -- 52
2017-10-30 18:00:00 8.7 2 Nordeste 16 Este 0 -- -- 70
2017-10-30 17:00:00 10.5 2 Nordeste 10 Noroeste 0 -- -- 58
2017-10-30 16:00:00 12.2 2 Norte 13 Este 0 -- -- 54
2017-10-30 15:00:00 16.5 5 Sudeste 22 Sudeste 0 -- -- 41
2017-10-30 14:00:00 20.2 9 Sudeste 25 Sur 0 -- -- 31
2017-10-30 13:00:00 20.8 9 Oeste 36 Oeste 0 -- -- 15
2017-10-30 12:00:00 19.6 15 Noroeste 39 Oeste 0 -- -- 25
2017-10-30 11:00:00 17.8 10 Oeste 35 Noroeste 0 -- -- 32
2017-10-30 10:00:00 16.1 17 Noroeste 37 Noroeste 0 -- -- 35
2017-10-30 09:00:00 11.3 9 Noroeste 24 Noroeste 0 -- -- 50
2017-10-30 08:00:00 7.7 7 Noroeste 21 Norte 0 -- -- 62
2017-10-30 07:00:00 7.4 5 Noroeste 15 Noroeste 0 -- -- 64
2017-10-30 06:00:00 7.7 6 Noroeste 21 Norte 0 -- -- 62
2017-10-30 05:00:00 8.3 9 Noroeste 26 Noroeste 0 -- -- 60
2017-10-30 04:00:00 8.5 8 Noroeste 23 Noroeste 0 -- -- 60
2017-10-30 03:00:00 9.9 10 Noroeste 26 Norte 0 -- -- 54
2017-10-30 02:00:00 9.7 7 Noroeste 29 Noroeste 0 -- -- 56
2017-10-30 01:00:00 11.4 13 Norte 31 Norte 0 -- -- 48
2017-10-30 00:00:00 10.7 12 Noroeste 28 Noroeste 0 -- -- 52
2017-10-29 23:00:00 11.4 10 Noroeste 24 Noroeste 0 -- -- 52
2017-10-29 22:00:00 11.1 10 Noroeste 30 Noroeste 0 -- -- 53
2017-10-29 21:00:00 11.7 13 Noroeste 30 Noroeste 0 -- -- 51
2017-10-29 20:00:00 13.3 8 Noroeste 24 Noroeste 0 -- -- 43
2017-10-29 19:00:00 13 11 Noroeste 29 Noroeste 0 -- -- 46
2017-10-29 18:00:00 13.1 12 Noroeste 27 Noroeste 0 -- -- 43
2017-10-29 17:00:00 14.4 9 Norte 39 Noroeste 0 -- -- 36
2017-10-29 16:00:00 17.7 15 Noroeste 34 Noroeste 0 -- -- 29
2017-10-29 15:00:00 18.1 17 Noroeste 41 Noroeste 0 -- -- 26
2017-10-29 14:00:00 20.5 13 Noroeste 34 Noroeste 0 -- -- 21
2017-10-29 13:00:00 20.7 14 Noroeste 33 Noroeste 0 -- -- 18
2017-10-29 12:00:00 20.9 9 Noroeste 36 Noroeste 0 -- -- 20
2017-10-29 11:00:00 19.5 13 Noroeste 32 Noroeste 0 -- -- 19
2017-10-29 10:00:00 15.8 10 Noroeste 30 Norte 0 -- -- 27
2017-10-29 09:00:00 10.5 17 Norte 32 Norte 0 -- -- 33
2017-10-29 08:00:00 7.7 8 Noroeste 29 Noroeste 0 -- -- 39
2017-10-29 07:00:00 6.6 10 Noroeste 27 Norte 0 -- -- 43
2017-10-29 06:00:00 6.8 8 Noroeste 21 Norte 0 -- -- 41
2017-10-29 05:00:00 6.4 6 Noroeste 15 Noroeste 0 -- -- 44
2017-10-29 04:00:00 7.2 6 Noroeste 17 Noroeste 0 -- -- 38
2017-10-29 03:00:00 8.8 4 Noroeste 27 Norte 0 -- -- 35
2017-10-29 02:00:00 11 14 Noroeste 37 Noroeste 0 -- -- 22
2017-10-29 01:00:00 11.6 13 Norte 37 Noroeste 0 -- -- 19
2017-10-29 00:00:00 11.3 13 Norte 28 Norte 0 -- -- 25
2017-10-28 23:00:00 6.7 0 Calma 11 Noroeste 0 -- -- 54
2017-10-28 22:00:00 8.9 4 Noroeste 23 Norte 0 -- -- 39
2017-10-28 21:00:00 11.7 11 Norte 28 Norte 0 -- -- 31
2017-10-28 20:00:00 11.9 14 Noroeste 23 Noroeste 0 -- -- 34
2017-10-28 19:00:00 15.4 10 Noroeste 27 Noroeste 0 -- -- 25
2017-10-28 18:00:00 11.9 3 Sudeste 10 Sudeste 0 -- -- 60
2017-10-28 17:00:00 13.7 3 Norte 17 Sudeste 0 -- -- 46
2017-10-28 16:00:00 17.6 4 Sudeste 23 Este 0 -- -- 38
2017-10-28 15:00:00 20.9 9 Sudeste 33 Noroeste 0 -- -- 32
2017-10-28 14:00:00 22 12 Noroeste 40 Noroeste 0 -- -- 11
2017-10-28 13:00:00 20.6 18 Noroeste 46 Noroeste 0 -- -- 11
2017-10-28 12:00:00 19.8 19 Noroeste 43 Noroeste 0 -- -- 11
2017-10-28 11:00:00 16.2 15 Noroeste 37 Noroeste 0 -- -- 22
2017-10-28 10:00:00 11.6 19 Norte 43 Noroeste 0 -- -- 30
2017-10-28 09:00:00 10.4 20 Noroeste 41 Noroeste 0 -- -- 39
2017-10-28 08:00:00 10.8 17 Noroeste 38 Noroeste 0 -- -- 41
2017-10-28 07:00:00 12.4 15 Noroeste 41 Noroeste 0 -- -- 43
2017-10-28 06:00:00 12.9 18 Noroeste 41 Noroeste 0 -- -- 47
2017-10-28 05:00:00 14.3 20 Noroeste 47 Noroeste 0 -- -- 46
2017-10-28 04:00:00 14.1 18 Noroeste 52 Noroeste 0 -- -- 47
2017-10-28 03:00:00 14.5 18 Noroeste 49 Noroeste 0 -- -- 49
2017-10-28 02:00:00 12.5 14 Noroeste 42 Norte 0 -- -- 55
2017-10-28 01:00:00 14.5 15 Noroeste 39 Oeste 0 -- -- 49
2017-10-28 00:00:00 15.1 16 Noroeste 38 Noroeste 0 -- -- 47
2017-10-27 23:00:00 14.8 15 Noroeste 47 Noroeste 0 -- -- 48
2017-10-27 22:00:00 15.7 20 Noroeste 50 Noroeste 0 -- -- 42
2017-10-27 21:00:00 16.1 19 Noroeste 47 Noroeste 0 -- -- 40
2017-10-27 20:00:00 16.3 19 Noroeste 41 Noroeste 0 -- -- 42
2017-10-27 19:00:00 16.9 18 Noroeste 52 Noroeste 0 -- -- 40
2017-10-27 18:00:00 17.4 23 Noroeste 53 Noroeste 0 -- -- 43
2017-10-27 17:00:00 18.6 24 Noroeste 56 Noroeste 0 -- -- 40
2017-10-27 16:00:00 20.8 18 Noroeste 44 Noroeste 0 -- -- 29
2017-10-27 15:00:00 24.7 16 Noroeste 46 Noroeste 0 -- -- 16
2017-10-27 14:00:00 25.7 11 Noroeste 23 Noroeste 0 -- -- 14
2017-10-27 13:00:00 21.7 4 Sudeste 14 Este 0 -- -- 33
2017-10-27 12:00:00 20.4 0 Calma 5 Sudeste 0 -- -- 44
2017-10-27 11:00:00 13.6 2 Sudoeste 14 Sudoeste 0 -- -- 65
2017-10-27 10:00:00 7.2 0 Calma 14 Noroeste 0 -- -- 77
2017-10-27 09:00:00 8.1 5 Noroeste 18 Noroeste 0 -- -- 63
2017-10-27 08:00:00 7.3 6 Noroeste 14 Nordeste 0 -- -- 69
2017-10-27 07:00:00 6.2 4 Noroeste 9 Noroeste 0 -- -- 79
2017-10-27 06:00:00 5.9 3 Noroeste 18 Noroeste 0 -- -- 88
2017-10-27 05:00:00 5.9 2 Norte 8 Noroeste 0 -- -- 89
2017-10-27 04:00:00 6.5 2 Noroeste 14 Nordeste 0 -- -- 88
2017-10-27 03:00:00 6.9 2 Noroeste 15 Nordeste 0 -- -- 88
2017-10-27 02:00:00 7.6 3 Noroeste 11 Noroeste 0 -- -- 83
2017-10-27 01:00:00 7.7 2 Noroeste 12 Noroeste 0 -- -- 86
2017-10-27 00:00:00 8 3 Noroeste 10 Noroeste 0 -- -- 85
2017-10-26 23:00:00 8.5 2 Noroeste 9 Noroeste 0 -- -- 85
2017-10-26 22:00:00 9.2 0 Calma 9 Noroeste 0 -- -- 83
2017-10-26 21:00:00 10.5 3 Noroeste 12 Norte 0 -- -- 77
2017-10-26 20:00:00 11.3 3 Noroeste 9 Noroeste 0 -- -- 77
2017-10-26 19:00:00 13.1 4 Noroeste 13 Noroeste 0 -- -- 70
2017-10-26 18:00:00 15.1 5 Noroeste 16 Noroeste 0 -- -- 62
2017-10-26 17:00:00 16.3 3 Noroeste 9 Sudeste 0 -- -- 62
2017-10-26 16:00:00 19.9 2 Sur 15 Sudeste 0 -- -- 48
2017-10-26 15:00:00 24.5 5 Sur 16 Sur 0 -- -- 33
2017-10-26 14:00:00 23.6 3 Sudoeste 8 Sur 0 -- -- 40
2017-10-26 13:00:00 22.5 0 Calma 4 Oeste 0 -- -- 45
2017-10-26 12:00:00 19.1 2 Sur 6 Noroeste 0 -- -- 53
2017-10-26 11:00:00 12.1 2 Noroeste 8 Noroeste 0 -- -- 72
2017-10-26 10:00:00 6.6 0 Calma 17 Noroeste 0 -- -- 89
2017-10-26 09:00:00 6.8 5 Noroeste 19 Norte 0 -- -- 86
2017-10-26 08:00:00 6.3 3 Noroeste 17 Noroeste 0 -- -- 90
2017-10-26 07:00:00 6.7 3 Noroeste 9 Oeste 0 -- -- 90
2017-10-26 06:00:00 7 3 Noroeste 13 Noroeste 0 -- -- 88
2017-10-26 05:00:00 7.1 0 Calma 9 Noroeste 0 -- -- 91
2017-10-26 04:00:00 7.3 2 Noroeste 14 Nordeste 0 -- -- 92
2017-10-26 03:00:00 7.4 2 Noroeste 10 Noroeste 0 -- -- 93
2017-10-26 02:00:00 7.7 3 Norte 8 Norte 0 -- -- 93
2017-10-26 01:00:00 8.1 3 Oeste 6 Oeste 0 -- -- 93
2017-10-26 00:00:00 8.6 3 Noroeste 12 Noroeste 0 -- -- 90
2017-10-25 23:00:00 8.9 2 Noroeste 14 Norte 0 -- -- 91
2017-10-25 22:00:00 9.6 0 Calma 13 Sudoeste 0 -- -- 88
2017-10-25 21:00:00 10.5 2 Noroeste 13 Noroeste 0 -- -- 85
2017-10-25 20:00:00 11.5 2 Noroeste 9 Noroeste 0 -- -- 82
2017-10-25 19:00:00 13.1 3 Norte 17 Oeste 0 -- -- 76
2017-10-25 18:00:00 15 4 Noroeste 15 Norte 0 -- -- 68
2017-10-25 17:00:00 15.7 3 Noroeste 9 Noroeste 0 -- -- 69
2017-10-25 16:00:00 19.5 4 Sur 18 Sudoeste 0 -- -- 54
2017-10-25 15:00:00 23.7 9 Sur 21 Sur 0 -- -- 36
2017-10-25 14:00:00 23.2 7 Sur 17 Sudoeste 0 -- -- 37
2017-10-25 13:00:00 21 3 Sudeste 16 Sudoeste 0 -- -- 42
2017-10-25 12:00:00 18.4 0 Calma 6 Sudeste 0 -- -- 55
2017-10-25 11:00:00 11.8 0 Calma 8 Oeste 0 -- -- 79
2017-10-25 10:00:00 6.3 3 Norte 13 Nordeste 0 -- -- 93
2017-10-25 09:00:00 6.2 2 Noroeste 15 Nordeste 0 -- -- 91
2017-10-25 08:00:00 6 0 Calma 11 Noroeste 0 -- -- 92
2017-10-25 07:00:00 6.2 3 Oeste 10 Sudoeste 0 -- -- 92
2017-10-25 06:00:00 6.3 0 Calma 8 Noroeste 0 -- -- 91
2017-10-25 05:00:00 6.7 2 Noroeste 9 Noroeste 0 -- -- 89
2017-10-25 04:00:00 6.9 2 Noroeste 8 Noroeste 0 -- -- 89
2017-10-25 03:00:00 7 2 Noroeste 8 Oeste 0 -- -- 91
2017-10-25 02:00:00 7.4 3 Noroeste 14 Nordeste 0 -- -- 89
2017-10-25 01:00:00 8 3 Noroeste 9 Oeste 0 -- -- 88
2017-10-25 00:00:00 8.5 2 Noroeste 10 Noroeste 0 -- -- 86